sensor_id;sensor_type;location;lat;lon;timestamp;P1;durP1;ratioP1;P2;durP2;ratioP2
60370;SDS011;48550;40.588;49.684;2023-01-09T00:01:23;3.60;;;1.92;;
60370;SDS011;48550;40.588;49.684;2023-01-09T00:03:52;2.88;;;1.48;;
60370;SDS011;48550;40.588;49.684;2023-01-09T00:06:18;8.98;;;3.35;;
60370;SDS011;48550;40.588;49.684;2023-01-09T00:08:44;4.40;;;2.35;;
60370;SDS011;48550;40.588;49.684;2023-01-09T00:11:09;4.40;;;2.03;;
60370;SDS011;48550;40.588;49.684;2023-01-09T00:13:35;17.15;;;3.20;;
60370;SDS011;48550;40.588;49.684;2023-01-09T00:16:03;5.50;;;2.47;;
60370;SDS011;48550;40.588;49.684;2023-01-09T00:18:29;1.95;;;1.55;;
60370;SDS011;48550;40.588;49.684;2023-01-09T00:20:58;3.47;;;1.67;;
60370;SDS011;48550;40.588;49.684;2023-01-09T00:23:24;32.90;;;5.13;;
60370;SDS011;48550;40.588;49.684;2023-01-09T00:25:59;20.95;;;2.95;;
60370;SDS011;48550;40.588;49.684;2023-01-09T00:28:46;7.28;;;2.70;;
60370;SDS011;48550;40.588;49.684;2023-01-09T00:31:14;10.15;;;3.08;;
60370;SDS011;48550;40.588;49.684;2023-01-09T00:33:42;5.10;;;2.28;;
60370;SDS011;48550;40.588;49.684;2023-01-09T00:36:37;5.28;;;2.50;;
60370;SDS011;48550;40.588;49.684;2023-01-09T00:39:03;6.13;;;2.67;;
60370;SDS011;48550;40.588;49.684;2023-01-09T00:41:39;5.07;;;2.30;;
60370;SDS011;48550;40.588;49.684;2023-01-09T00:44:10;3.88;;;2.15;;
60370;SDS011;48550;40.588;49.684;2023-01-09T00:46:40;2.38;;;1.85;;
60370;SDS011;48550;40.588;49.684;2023-01-09T00:49:09;9.05;;;2.63;;
60370;SDS011;48550;40.588;49.684;2023-01-09T00:51:37;2.38;;;1.65;;
60370;SDS011;48550;40.588;49.684;2023-01-09T00:54:05;7.88;;;2.78;;
60370;SDS011;48550;40.588;49.684;2023-01-09T00:56:32;4.78;;;2.22;;
60370;SDS011;48550;40.588;49.684;2023-01-09T00:59:00;3.45;;;1.75;;
60370;SDS011;48550;40.588;49.684;2023-01-09T01:01:27;4.00;;;2.00;;
60370;SDS011;48550;40.588;49.684;2023-01-09T01:03:52;5.38;;;2.75;;
60370;SDS011;48550;40.588;49.684;2023-01-09T01:06:18;4.20;;;2.40;;
60370;SDS011;48550;40.588;49.684;2023-01-09T01:09:02;3.97;;;2.30;;
60370;SDS011;48550;40.588;49.684;2023-01-09T01:11:28;6.70;;;2.38;;
60370;SDS011;48550;40.588;49.684;2023-01-09T01:13:56;1.98;;;1.67;;
60370;SDS011;48550;40.588;49.684;2023-01-09T01:16:22;4.55;;;2.40;;
60370;SDS011;48550;40.588;49.684;2023-01-09T01:18:48;16.33;;;3.67;;
60370;SDS011;48550;40.588;49.684;2023-01-09T01:21:14;4.20;;;2.35;;
60370;SDS011;48550;40.588;49.684;2023-01-09T01:23:41;17.27;;;3.58;;
60370;SDS011;48550;40.588;49.684;2023-01-09T01:26:12;23.30;;;4.13;;
60370;SDS011;48550;40.588;49.684;2023-01-09T01:28:39;5.35;;;2.50;;
60370;SDS011;48550;40.588;49.684;2023-01-09T01:31:06;6.68;;;1.98;;
60370;SDS011;48550;40.588;49.684;2023-01-09T01:33:32;6.32;;;2.78;;
60370;SDS011;48550;40.588;49.684;2023-01-09T01:38:27;3.97;;;2.28;;
60370;SDS011;48550;40.588;49.684;2023-01-09T01:40:54;6.15;;;2.53;;
60370;SDS011;48550;40.588;49.684;2023-01-09T01:43:20;5.82;;;2.83;;
60370;SDS011;48550;40.588;49.684;2023-01-09T01:45:46;4.60;;;2.70;;
60370;SDS011;48550;40.588;49.684;2023-01-09T01:48:13;4.88;;;1.48;;
60370;SDS011;48550;40.588;49.684;2023-01-09T01:51:05;7.55;;;3.40;;
60370;SDS011;48550;40.588;49.684;2023-01-09T01:53:39;4.95;;;3.22;;
60370;SDS011;48550;40.588;49.684;2023-01-09T01:56:27;5.45;;;2.67;;
60370;SDS011;48550;40.588;49.684;2023-01-09T01:59:10;4.43;;;2.63;;
60370;SDS011;48550;40.588;49.684;2023-01-09T02:01:47;6.70;;;2.53;;
60370;SDS011;48550;40.588;49.684;2023-01-09T02:04:16;6.45;;;2.88;;
60370;SDS011;48550;40.588;49.684;2023-01-09T02:06:42;6.55;;;3.15;;
60370;SDS011;48550;40.588;49.684;2023-01-09T02:09:11;3.67;;;2.38;;
60370;SDS011;48550;40.588;49.684;2023-01-09T02:11:45;5.43;;;3.03;;
60370;SDS011;48550;40.588;49.684;2023-01-09T02:14:12;10.60;;;2.83;;
60370;SDS011;48550;40.588;49.684;2023-01-09T02:16:53;4.93;;;2.75;;
60370;SDS011;48550;40.588;49.684;2023-01-09T02:30:42;5.78;;;3.30;;
60370;SDS011;48550;40.588;49.684;2023-01-09T02:36:04;3.10;;;1.88;;
60370;SDS011;48550;40.588;49.684;2023-01-09T02:38:53;6.20;;;3.13;;
60370;SDS011;48550;40.588;49.684;2023-01-09T02:41:20;7.43;;;2.80;;
60370;SDS011;48550;40.588;49.684;2023-01-09T02:46:40;4.38;;;2.28;;
60370;SDS011;48550;40.588;49.684;2023-01-09T02:49:06;5.47;;;2.67;;
60370;SDS011;48550;40.588;49.684;2023-01-09T02:51:36;5.88;;;3.15;;
60370;SDS011;48550;40.588;49.684;2023-01-09T02:57:03;10.90;;;3.95;;
60370;SDS011;48550;40.588;49.684;2023-01-09T02:59:54;12.90;;;4.28;;
60370;SDS011;48550;40.588;49.684;2023-01-09T03:05:18;9.25;;;3.22;;
60370;SDS011;48550;40.588;49.684;2023-01-09T03:10:36;5.15;;;3.10;;
60370;SDS011;48550;40.588;49.684;2023-01-09T03:13:09;2.17;;;1.75;;
60370;SDS011;48550;40.588;49.684;2023-01-09T03:15:37;9.02;;;3.17;;
60370;SDS011;48550;40.588;49.684;2023-01-09T03:18:07;8.07;;;3.85;;
60370;SDS011;48550;40.588;49.684;2023-01-09T03:20:36;9.80;;;3.47;;
60370;SDS011;48550;40.588;49.684;2023-01-09T03:23:04;8.35;;;3.60;;
60370;SDS011;48550;40.588;49.684;2023-01-09T03:25:31;9.00;;;3.88;;
60370;SDS011;48550;40.588;49.684;2023-01-09T03:27:58;5.57;;;3.47;;
60370;SDS011;48550;40.588;49.684;2023-01-09T03:30:29;5.63;;;2.88;;
60370;SDS011;48550;40.588;49.684;2023-01-09T03:32:56;7.05;;;3.15;;
60370;SDS011;48550;40.588;49.684;2023-01-09T03:35:22;7.75;;;4.03;;
60370;SDS011;48550;40.588;49.684;2023-01-09T03:37:48;3.85;;;2.60;;
60370;SDS011;48550;40.588;49.684;2023-01-09T03:40:16;13.88;;;3.35;;
60370;SDS011;48550;40.588;49.684;2023-01-09T03:42:45;5.93;;;3.17;;
60370;SDS011;48550;40.588;49.684;2023-01-09T03:45:11;8.95;;;3.42;;
60370;SDS011;48550;40.588;49.684;2023-01-09T03:47:37;7.78;;;3.22;;
60370;SDS011;48550;40.588;49.684;2023-01-09T03:50:03;7.85;;;4.35;;
60370;SDS011;48550;40.588;49.684;2023-01-09T03:52:29;11.85;;;4.32;;
60370;SDS011;48550;40.588;49.684;2023-01-09T03:54:55;8.98;;;3.95;;
60370;SDS011;48550;40.588;49.684;2023-01-09T03:57:21;8.20;;;3.78;;
60370;SDS011;48550;40.588;49.684;2023-01-09T03:59:48;10.50;;;4.53;;
60370;SDS011;48550;40.588;49.684;2023-01-09T04:02:14;7.10;;;3.25;;
60370;SDS011;48550;40.588;49.684;2023-01-09T04:04:39;7.05;;;3.67;;
60370;SDS011;48550;40.588;49.684;2023-01-09T04:07:05;8.18;;;3.28;;
60370;SDS011;48550;40.588;49.684;2023-01-09T04:09:31;7.97;;;3.67;;
60370;SDS011;48550;40.588;49.684;2023-01-09T04:11:57;6.55;;;3.72;;
60370;SDS011;48550;40.588;49.684;2023-01-09T04:14:22;6.60;;;3.03;;
60370;SDS011;48550;40.588;49.684;2023-01-09T04:16:48;8.95;;;3.35;;
60370;SDS011;48550;40.588;49.684;2023-01-09T04:19:14;7.18;;;3.60;;
60370;SDS011;48550;40.588;49.684;2023-01-09T04:21:39;13.38;;;4.57;;
60370;SDS011;48550;40.588;49.684;2023-01-09T04:24:05;5.53;;;3.08;;
60370;SDS011;48550;40.588;49.684;2023-01-09T04:26:31;6.03;;;3.50;;
60370;SDS011;48550;40.588;49.684;2023-01-09T04:28:57;8.75;;;3.67;;
60370;SDS011;48550;40.588;49.684;2023-01-09T04:31:23;13.07;;;4.75;;
60370;SDS011;48550;40.588;49.684;2023-01-09T04:33:48;8.43;;;3.67;;
60370;SDS011;48550;40.588;49.684;2023-01-09T04:36:14;11.90;;;4.32;;
60370;SDS011;48550;40.588;49.684;2023-01-09T04:38:40;4.82;;;3.10;;
60370;SDS011;48550;40.588;49.684;2023-01-09T04:41:05;4.47;;;2.85;;
60370;SDS011;48550;40.588;49.684;2023-01-09T04:43:31;13.13;;;4.80;;
60370;SDS011;48550;40.588;49.684;2023-01-09T04:45:57;6.55;;;4.05;;
60370;SDS011;48550;40.588;49.684;2023-01-09T04:48:22;8.48;;;4.97;;
60370;SDS011;48550;40.588;49.684;2023-01-09T04:50:48;19.17;;;6.10;;
60370;SDS011;48550;40.588;49.684;2023-01-09T04:53:14;9.63;;;3.97;;
60370;SDS011;48550;40.588;49.684;2023-01-09T04:55:39;7.97;;;4.38;;
60370;SDS011;48550;40.588;49.684;2023-01-09T04:58:07;10.90;;;5.32;;
60370;SDS011;48550;40.588;49.684;2023-01-09T05:00:32;7.90;;;3.47;;
60370;SDS011;48550;40.588;49.684;2023-01-09T05:02:58;8.02;;;4.03;;
60370;SDS011;48550;40.588;49.684;2023-01-09T05:05:24;6.72;;;2.97;;
60370;SDS011;48550;40.588;49.684;2023-01-09T05:07:49;8.32;;;4.53;;
60370;SDS011;48550;40.588;49.684;2023-01-09T05:10:15;6.28;;;3.78;;
60370;SDS011;48550;40.588;49.684;2023-01-09T05:12:41;7.25;;;4.00;;
60370;SDS011;48550;40.588;49.684;2023-01-09T05:15:07;4.60;;;3.10;;
60370;SDS011;48550;40.588;49.684;2023-01-09T05:17:34;4.85;;;2.95;;
60370;SDS011;48550;40.588;49.684;2023-01-09T05:20:00;10.80;;;5.35;;
60370;SDS011;48550;40.588;49.684;2023-01-09T05:22:26;5.15;;;3.30;;
60370;SDS011;48550;40.588;49.684;2023-01-09T05:24:52;11.48;;;3.90;;
60370;SDS011;48550;40.588;49.684;2023-01-09T05:27:17;11.70;;;4.32;;
60370;SDS011;48550;40.588;49.684;2023-01-09T05:29:43;8.82;;;3.78;;
60370;SDS011;48550;40.588;49.684;2023-01-09T05:32:09;12.10;;;4.97;;
60370;SDS011;48550;40.588;49.684;2023-01-09T05:34:34;12.40;;;6.03;;
60370;SDS011;48550;40.588;49.684;2023-01-09T05:37:00;9.85;;;4.72;;
60370;SDS011;48550;40.588;49.684;2023-01-09T05:39:26;7.50;;;4.05;;
60370;SDS011;48550;40.588;49.684;2023-01-09T05:41:51;17.80;;;5.18;;
60370;SDS011;48550;40.588;49.684;2023-01-09T05:44:17;7.13;;;3.88;;
60370;SDS011;48550;40.588;49.684;2023-01-09T05:46:43;8.40;;;4.47;;
60370;SDS011;48550;40.588;49.684;2023-01-09T05:49:08;9.00;;;3.28;;
60370;SDS011;48550;40.588;49.684;2023-01-09T05:51:34;17.77;;;4.53;;
60370;SDS011;48550;40.588;49.684;2023-01-09T05:54:00;9.55;;;4.72;;
60370;SDS011;48550;40.588;49.684;2023-01-09T05:56:26;9.48;;;4.82;;
60370;SDS011;48550;40.588;49.684;2023-01-09T05:58:54;10.02;;;4.50;;
60370;SDS011;48550;40.588;49.684;2023-01-09T06:01:19;9.30;;;4.65;;
60370;SDS011;48550;40.588;49.684;2023-01-09T06:03:45;15.02;;;5.28;;
60370;SDS011;48550;40.588;49.684;2023-01-09T06:06:11;12.20;;;4.72;;
60370;SDS011;48550;40.588;49.684;2023-01-09T06:08:36;9.35;;;4.28;;
60370;SDS011;48550;40.588;49.684;2023-01-09T06:11:02;7.68;;;3.60;;
60370;SDS011;48550;40.588;49.684;2023-01-09T06:13:28;5.10;;;2.83;;
60370;SDS011;48550;40.588;49.684;2023-01-09T06:15:53;11.82;;;4.70;;
60370;SDS011;48550;40.588;49.684;2023-01-09T06:18:19;9.35;;;4.22;;
60370;SDS011;48550;40.588;49.684;2023-01-09T06:20:45;7.32;;;3.03;;
60370;SDS011;48550;40.588;49.684;2023-01-09T06:23:10;10.10;;;4.38;;
60370;SDS011;48550;40.588;49.684;2023-01-09T06:25:36;8.68;;;4.05;;
60370;SDS011;48550;40.588;49.684;2023-01-09T06:28:02;9.73;;;4.97;;
60370;SDS011;48550;40.588;49.684;2023-01-09T06:30:28;6.43;;;3.80;;
60370;SDS011;48550;40.588;49.684;2023-01-09T06:32:53;11.52;;;4.88;;
60370;SDS011;48550;40.588;49.684;2023-01-09T06:35:19;5.63;;;3.97;;
60370;SDS011;48550;40.588;49.684;2023-01-09T06:37:49;6.95;;;3.42;;
60370;SDS011;48550;40.588;49.684;2023-01-09T06:40:15;6.07;;;3.22;;
60370;SDS011;48550;40.588;49.684;2023-01-09T06:42:44;7.18;;;3.95;;
60370;SDS011;48550;40.588;49.684;2023-01-09T06:45:11;8.20;;;3.92;;
60370;SDS011;48550;40.588;49.684;2023-01-09T06:47:38;11.43;;;4.70;;
60370;SDS011;48550;40.588;49.684;2023-01-09T06:50:04;8.30;;;4.18;;
60370;SDS011;48550;40.588;49.684;2023-01-09T06:52:32;7.70;;;4.15;;
60370;SDS011;48550;40.588;49.684;2023-01-09T06:54:57;7.38;;;3.80;;
60370;SDS011;48550;40.588;49.684;2023-01-09T06:57:23;7.50;;;4.22;;
60370;SDS011;48550;40.588;49.684;2023-01-09T06:59:49;9.02;;;4.45;;
60370;SDS011;48550;40.588;49.684;2023-01-09T07:02:18;7.88;;;3.72;;
60370;SDS011;48550;40.588;49.684;2023-01-09T07:04:45;5.35;;;3.10;;
60370;SDS011;48550;40.588;49.684;2023-01-09T07:07:11;9.60;;;4.97;;
60370;SDS011;48550;40.588;49.684;2023-01-09T07:09:37;12.77;;;5.40;;
60370;SDS011;48550;40.588;49.684;2023-01-09T07:12:02;11.68;;;3.47;;
60370;SDS011;48550;40.588;49.684;2023-01-09T07:14:28;16.35;;;5.05;;
60370;SDS011;48550;40.588;49.684;2023-01-09T07:16:54;25.45;;;11.93;;
60370;SDS011;48550;40.588;49.684;2023-01-09T07:19:20;19.92;;;8.60;;
60370;SDS011;48550;40.588;49.684;2023-01-09T07:21:45;27.90;;;14.68;;
60370;SDS011;48550;40.588;49.684;2023-01-09T07:24:11;19.83;;;10.73;;
60370;SDS011;48550;40.588;49.684;2023-01-09T07:26:37;11.98;;;6.68;;
60370;SDS011;48550;40.588;49.684;2023-01-09T07:29:02;18.92;;;8.93;;
60370;SDS011;48550;40.588;49.684;2023-01-09T07:31:28;16.13;;;6.63;;
60370;SDS011;48550;40.588;49.684;2023-01-09T07:33:54;20.20;;;9.13;;
60370;SDS011;48550;40.588;49.684;2023-01-09T07:36:19;22.10;;;11.25;;
60370;SDS011;48550;40.588;49.684;2023-01-09T07:38:45;13.52;;;7.38;;
60370;SDS011;48550;40.588;49.684;2023-01-09T07:41:11;13.07;;;6.20;;
60370;SDS011;48550;40.588;49.684;2023-01-09T07:43:37;10.18;;;5.28;;
60370;SDS011;48550;40.588;49.684;2023-01-09T07:46:03;7.10;;;4.05;;
60370;SDS011;48550;40.588;49.684;2023-01-09T07:48:30;8.23;;;4.43;;
60370;SDS011;48550;40.588;49.684;2023-01-09T07:50:56;7.22;;;3.60;;
60370;SDS011;48550;40.588;49.684;2023-01-09T07:53:21;9.43;;;5.40;;
60370;SDS011;48550;40.588;49.684;2023-01-09T07:55:47;6.38;;;3.55;;
60370;SDS011;48550;40.588;49.684;2023-01-09T07:58:13;9.55;;;3.08;;
60370;SDS011;48550;40.588;49.684;2023-01-09T08:00:38;5.70;;;3.40;;
60370;SDS011;48550;40.588;49.684;2023-01-09T08:03:04;13.27;;;4.75;;
60370;SDS011;48550;40.588;49.684;2023-01-09T08:05:30;8.18;;;4.40;;
60370;SDS011;48550;40.588;49.684;2023-01-09T08:07:55;4.80;;;2.88;;
60370;SDS011;48550;40.588;49.684;2023-01-09T08:10:21;8.35;;;4.53;;
60370;SDS011;48550;40.588;49.684;2023-01-09T08:12:47;11.18;;;4.53;;
60370;SDS011;48550;40.588;49.684;2023-01-09T08:15:14;8.55;;;4.28;;
60370;SDS011;48550;40.588;49.684;2023-01-09T08:17:40;8.27;;;4.75;;
60370;SDS011;48550;40.588;49.684;2023-01-09T08:20:11;12.52;;;5.32;;
60370;SDS011;48550;40.588;49.684;2023-01-09T08:22:42;10.77;;;4.40;;
60370;SDS011;48550;40.588;49.684;2023-01-09T08:25:13;6.40;;;3.83;;
60370;SDS011;48550;40.588;49.684;2023-01-09T08:27:39;9.50;;;4.38;;
60370;SDS011;48550;40.588;49.684;2023-01-09T08:30:05;4.50;;;2.72;;
60370;SDS011;48550;40.588;49.684;2023-01-09T08:32:36;8.70;;;3.65;;
60370;SDS011;48550;40.588;49.684;2023-01-09T08:35:03;6.90;;;3.53;;
60370;SDS011;48550;40.588;49.684;2023-01-09T08:37:29;7.25;;;4.03;;
60370;SDS011;48550;40.588;49.684;2023-01-09T08:39:55;9.20;;;4.90;;
60370;SDS011;48550;40.588;49.684;2023-01-09T08:42:20;9.27;;;5.72;;
60370;SDS011;48550;40.588;49.684;2023-01-09T08:45:05;9.45;;;4.13;;
60370;SDS011;48550;40.588;49.684;2023-01-09T08:47:49;4.85;;;3.08;;
60370;SDS011;48550;40.588;49.684;2023-01-09T08:50:16;8.70;;;4.97;;
60370;SDS011;48550;40.588;49.684;2023-01-09T08:52:42;6.03;;;3.60;;
60370;SDS011;48550;40.588;49.684;2023-01-09T08:55:07;8.35;;;3.78;;
60370;SDS011;48550;40.588;49.684;2023-01-09T08:57:33;5.50;;;3.42;;
60370;SDS011;48550;40.588;49.684;2023-01-09T08:59:59;5.40;;;2.97;;
60370;SDS011;48550;40.588;49.684;2023-01-09T09:02:25;8.90;;;3.35;;
60370;SDS011;48550;40.588;49.684;2023-01-09T09:04:50;9.60;;;5.35;;
60370;SDS011;48550;40.588;49.684;2023-01-09T09:07:20;7.93;;;3.97;;
60370;SDS011;48550;40.588;49.684;2023-01-09T09:09:52;7.55;;;4.32;;
60370;SDS011;48550;40.588;49.684;2023-01-09T09:12:18;6.85;;;3.97;;
60370;SDS011;48550;40.588;49.684;2023-01-09T09:14:44;7.50;;;3.75;;
60370;SDS011;48550;40.588;49.684;2023-01-09T09:17:28;6.32;;;3.42;;
60370;SDS011;48550;40.588;49.684;2023-01-09T09:19:54;8.15;;;4.32;;
60370;SDS011;48550;40.588;49.684;2023-01-09T09:22:19;6.00;;;2.92;;
60370;SDS011;48550;40.588;49.684;2023-01-09T09:24:45;6.25;;;4.13;;
60370;SDS011;48550;40.588;49.684;2023-01-09T09:27:11;9.40;;;4.43;;
60370;SDS011;48550;40.588;49.684;2023-01-09T09:29:36;4.88;;;2.95;;
60370;SDS011;48550;40.588;49.684;2023-01-09T09:32:02;12.82;;;4.75;;
60370;SDS011;48550;40.588;49.684;2023-01-09T09:34:28;10.50;;;4.75;;
60370;SDS011;48550;40.588;49.684;2023-01-09T09:36:54;6.40;;;4.13;;
60370;SDS011;48550;40.588;49.684;2023-01-09T09:39:19;9.77;;;3.80;;
60370;SDS011;48550;40.588;49.684;2023-01-09T09:53:25;7.03;;;3.40;;
60370;SDS011;48550;40.588;49.684;2023-01-09T09:55:59;6.47;;;3.85;;
60370;SDS011;48550;40.588;49.684;2023-01-09T09:58:32;11.27;;;4.93;;
60370;SDS011;48550;40.588;49.684;2023-01-09T10:01:05;8.60;;;3.58;;
60370;SDS011;48550;40.588;49.684;2023-01-09T10:06:18;13.88;;;4.88;;
60370;SDS011;48550;40.588;49.684;2023-01-09T10:11:16;10.05;;;4.22;;
60370;SDS011;48550;40.588;49.684;2023-01-09T10:13:47;8.27;;;4.10;;
60370;SDS011;48550;40.588;49.684;2023-01-09T10:16:40;9.35;;;4.93;;
60370;SDS011;48550;40.588;49.684;2023-01-09T10:19:29;13.57;;;4.63;;
60370;SDS011;48550;40.588;49.684;2023-01-09T10:27:47;8.60;;;3.90;;
60370;SDS011;48550;40.588;49.684;2023-01-09T10:30:42;11.40;;;4.28;;
60370;SDS011;48550;40.588;49.684;2023-01-09T10:33:28;36.92;;;6.90;;
60370;SDS011;48550;40.588;49.684;2023-01-09T10:39:12;7.93;;;4.65;;
60370;SDS011;48550;40.588;49.684;2023-01-09T10:41:50;9.52;;;3.55;;
60370;SDS011;48550;40.588;49.684;2023-01-09T10:44:27;9.50;;;4.60;;
60370;SDS011;48550;40.588;49.684;2023-01-09T10:47:00;11.95;;;6.35;;
60370;SDS011;48550;40.588;49.684;2023-01-09T10:49:28;9.07;;;3.88;;
60370;SDS011;48550;40.588;49.684;2023-01-09T10:52:14;9.23;;;4.43;;
60370;SDS011;48550;40.588;49.684;2023-01-09T10:54:45;7.93;;;4.25;;
60370;SDS011;48550;40.588;49.684;2023-01-09T10:59:51;8.65;;;3.95;;
60370;SDS011;48550;40.588;49.684;2023-01-09T11:02:23;8.32;;;3.83;;
60370;SDS011;48550;40.588;49.684;2023-01-09T11:04:55;16.08;;;5.10;;
60370;SDS011;48550;40.588;49.684;2023-01-09T11:07:22;10.48;;;4.90;;
60370;SDS011;48550;40.588;49.684;2023-01-09T11:13:12;13.50;;;4.72;;
60370;SDS011;48550;40.588;49.684;2023-01-09T11:15:43;9.98;;;4.80;;
60370;SDS011;48550;40.588;49.684;2023-01-09T11:18:16;6.55;;;3.97;;
60370;SDS011;48550;40.588;49.684;2023-01-09T11:20:44;4.90;;;2.95;;
60370;SDS011;48550;40.588;49.684;2023-01-09T11:23:23;8.50;;;4.57;;
60370;SDS011;48550;40.588;49.684;2023-01-09T11:25:52;4.60;;;2.88;;
60370;SDS011;48550;40.588;49.684;2023-01-09T11:28:19;8.07;;;3.92;;
60370;SDS011;48550;40.588;49.684;2023-01-09T11:31:00;7.55;;;3.97;;
60370;SDS011;48550;40.588;49.684;2023-01-09T11:33:28;9.90;;;4.65;;
60370;SDS011;48550;40.588;49.684;2023-01-09T11:35:56;13.10;;;5.43;;
60370;SDS011;48550;40.588;49.684;2023-01-09T11:38:25;9.90;;;4.43;;
60370;SDS011;48550;40.588;49.684;2023-01-09T11:40:55;8.50;;;4.25;;
60370;SDS011;48550;40.588;49.684;2023-01-09T11:43:26;8.57;;;4.47;;
60370;SDS011;48550;40.588;49.684;2023-01-09T11:45:59;7.65;;;4.28;;
60370;SDS011;48550;40.588;49.684;2023-01-09T11:51:02;6.70;;;3.92;;
60370;SDS011;48550;40.588;49.684;2023-01-09T11:53:51;9.10;;;3.95;;
60370;SDS011;48550;40.588;49.684;2023-01-09T11:56:26;8.50;;;3.65;;
60370;SDS011;48550;40.588;49.684;2023-01-09T11:58:53;9.38;;;5.10;;
60370;SDS011;48550;40.588;49.684;2023-01-09T12:01:38;12.07;;;5.10;;
60370;SDS011;48550;40.588;49.684;2023-01-09T12:12:38;11.15;;;5.38;;
60370;SDS011;48550;40.588;49.684;2023-01-09T12:15:32;10.90;;;4.68;;
60370;SDS011;48550;40.588;49.684;2023-01-09T12:23:59;9.50;;;4.60;;
60370;SDS011;48550;40.588;49.684;2023-01-09T12:26:31;7.60;;;3.45;;
60370;SDS011;48550;40.588;49.684;2023-01-09T12:32:03;8.30;;;5.07;;
60370;SDS011;48550;40.588;49.684;2023-01-09T12:38:02;9.00;;;4.85;;
60370;SDS011;48550;40.588;49.684;2023-01-09T12:46:19;9.75;;;4.78;;
60370;SDS011;48550;40.588;49.684;2023-01-09T12:53:51;11.00;;;5.00;;
60370;SDS011;48550;40.588;49.684;2023-01-09T12:56:42;10.13;;;4.70;;
60370;SDS011;48550;40.588;49.684;2023-01-09T12:59:32;14.40;;;6.95;;
60370;SDS011;48550;40.588;49.684;2023-01-09T13:04:51;15.68;;;9.20;;
60370;SDS011;48550;40.588;49.684;2023-01-09T13:07:23;16.55;;;8.35;;
60370;SDS011;48550;40.588;49.684;2023-01-09T13:12:46;12.40;;;8.45;;
60370;SDS011;48550;40.588;49.684;2023-01-09T13:15:25;14.65;;;8.40;;
60370;SDS011;48550;40.588;49.684;2023-01-09T13:20:51;9.55;;;4.85;;
60370;SDS011;48550;40.588;49.684;2023-01-09T13:26:16;8.68;;;4.40;;
60370;SDS011;48550;40.588;49.684;2023-01-09T13:28:45;4.75;;;3.33;;
60370;SDS011;48550;40.588;49.684;2023-01-09T13:31:45;10.02;;;5.22;;
60370;SDS011;48550;40.588;49.684;2023-01-09T13:34:15;4.28;;;2.97;;
60370;SDS011;48550;40.588;49.684;2023-01-09T13:36:48;7.72;;;4.00;;
60370;SDS011;48550;40.588;49.684;2023-01-09T13:39:36;11.68;;;5.15;;
60370;SDS011;48550;40.588;49.684;2023-01-09T13:42:02;7.75;;;4.57;;
60370;SDS011;48550;40.588;49.684;2023-01-09T13:44:48;9.63;;;4.80;;
60370;SDS011;48550;40.588;49.684;2023-01-09T13:47:24;11.47;;;4.60;;
60370;SDS011;48550;40.588;49.684;2023-01-09T13:50:18;8.02;;;4.60;;
60370;SDS011;48550;40.588;49.684;2023-01-09T13:52:48;7.55;;;4.03;;
60370;SDS011;48550;40.588;49.684;2023-01-09T14:07:48;7.32;;;3.65;;
60370;SDS011;48550;40.588;49.684;2023-01-09T14:10:26;6.78;;;3.75;;
60370;SDS011;48550;40.588;49.684;2023-01-09T14:12:54;10.93;;;4.97;;
60370;SDS011;48550;40.588;49.684;2023-01-09T14:18:05;8.80;;;4.22;;
60370;SDS011;48550;40.588;49.684;2023-01-09T14:20:53;7.97;;;4.72;;
60370;SDS011;48550;40.588;49.684;2023-01-09T14:23:23;13.63;;;4.72;;
60370;SDS011;48550;40.588;49.684;2023-01-09T14:26:01;10.52;;;5.47;;
60370;SDS011;48550;40.588;49.684;2023-01-09T14:28:28;11.05;;;5.10;;
60370;SDS011;48550;40.588;49.684;2023-01-09T14:41:24;9.38;;;5.13;;
60370;SDS011;48550;40.588;49.684;2023-01-09T14:47:16;12.30;;;4.63;;
60370;SDS011;48550;40.588;49.684;2023-01-09T14:49:47;6.30;;;3.92;;
60370;SDS011;48550;40.588;49.684;2023-01-09T14:55:39;7.05;;;3.80;;
60370;SDS011;48550;40.588;49.684;2023-01-09T15:01:04;10.75;;;4.15;;
60370;SDS011;48550;40.588;49.684;2023-01-09T15:11:27;8.30;;;4.72;;
60370;SDS011;48550;40.588;49.684;2023-01-09T15:13:54;13.07;;;6.50;;
60370;SDS011;48550;40.588;49.684;2023-01-09T15:16:24;5.60;;;3.33;;
60370;SDS011;48550;40.588;49.684;2023-01-09T15:18:52;14.52;;;5.25;;
60370;SDS011;48550;40.588;49.684;2023-01-09T15:21:21;12.27;;;5.65;;
60370;SDS011;48550;40.588;49.684;2023-01-09T15:23:52;8.75;;;3.88;;
60370;SDS011;48550;40.588;49.684;2023-01-09T15:26:25;9.23;;;4.43;;
60370;SDS011;48550;40.588;49.684;2023-01-09T15:29:08;8.25;;;4.78;;
60370;SDS011;48550;40.588;49.684;2023-01-09T15:31:40;8.98;;;4.47;;
60370;SDS011;48550;40.588;49.684;2023-01-09T15:34:16;10.80;;;5.53;;
60370;SDS011;48550;40.588;49.684;2023-01-09T15:36:45;10.93;;;5.57;;
60370;SDS011;48550;40.588;49.684;2023-01-09T15:39:17;10.05;;;4.93;;
60370;SDS011;48550;40.588;49.684;2023-01-09T15:41:46;5.53;;;3.70;;
60370;SDS011;48550;40.588;49.684;2023-01-09T15:44:30;9.70;;;4.03;;
60370;SDS011;48550;40.588;49.684;2023-01-09T15:47:00;8.77;;;4.13;;
60370;SDS011;48550;40.588;49.684;2023-01-09T15:49:28;8.60;;;4.53;;
60370;SDS011;48550;40.588;49.684;2023-01-09T15:51:55;9.20;;;4.88;;
60370;SDS011;48550;40.588;49.684;2023-01-09T15:54:28;9.73;;;4.95;;
60370;SDS011;48550;40.588;49.684;2023-01-09T15:57:48;8.57;;;4.55;;
60370;SDS011;48550;40.588;49.684;2023-01-09T15:59:54;6.47;;;3.33;;
60370;SDS011;48550;40.588;49.684;2023-01-09T16:02:22;7.95;;;4.45;;
60370;SDS011;48550;40.588;49.684;2023-01-09T16:05:08;7.90;;;4.30;;
60370;SDS011;48550;40.588;49.684;2023-01-09T16:07:45;8.45;;;4.97;;
60370;SDS011;48550;40.588;49.684;2023-01-09T16:10:32;5.35;;;2.97;;
60370;SDS011;48550;40.588;49.684;2023-01-09T16:12:59;8.07;;;4.78;;
60370;SDS011;48550;40.588;49.684;2023-01-09T16:15:25;10.88;;;5.20;;
60370;SDS011;48550;40.588;49.684;2023-01-09T16:18:15;8.95;;;5.30;;
60370;SDS011;48550;40.588;49.684;2023-01-09T16:20:46;11.68;;;4.00;;
60370;SDS011;48550;40.588;49.684;2023-01-09T16:26:10;11.80;;;5.60;;
60370;SDS011;48550;40.588;49.684;2023-01-09T16:28:37;8.93;;;4.45;;
60370;SDS011;48550;40.588;49.684;2023-01-09T16:31:18;12.10;;;4.45;;
60370;SDS011;48550;40.588;49.684;2023-01-09T16:33:56;11.02;;;5.20;;
60370;SDS011;48550;40.588;49.684;2023-01-09T16:36:30;8.05;;;4.43;;
60370;SDS011;48550;40.588;49.684;2023-01-09T16:38:58;9.27;;;3.92;;
60370;SDS011;48550;40.588;49.684;2023-01-09T16:41:25;7.25;;;4.13;;
60370;SDS011;48550;40.588;49.684;2023-01-09T16:44:12;12.20;;;6.05;;
60370;SDS011;48550;40.588;49.684;2023-01-09T16:46:39;10.95;;;5.53;;
60370;SDS011;48550;40.588;49.684;2023-01-09T16:49:19;4.93;;;2.78;;
60370;SDS011;48550;40.588;49.684;2023-01-09T16:51:47;8.48;;;4.70;;
60370;SDS011;48550;40.588;49.684;2023-01-09T16:54:14;9.77;;;3.80;;
60370;SDS011;48550;40.588;49.684;2023-01-09T16:56:41;10.38;;;4.90;;
60370;SDS011;48550;40.588;49.684;2023-01-09T16:59:10;8.40;;;3.92;;
60370;SDS011;48550;40.588;49.684;2023-01-09T17:01:38;8.80;;;4.57;;
60370;SDS011;48550;40.588;49.684;2023-01-09T17:04:09;7.18;;;3.72;;
60370;SDS011;48550;40.588;49.684;2023-01-09T17:06:36;7.85;;;4.10;;
60370;SDS011;48550;40.588;49.684;2023-01-09T17:09:03;9.07;;;4.30;;
60370;SDS011;48550;40.588;49.684;2023-01-09T17:11:29;11.68;;;5.65;;
60370;SDS011;48550;40.588;49.684;2023-01-09T17:14:00;5.93;;;2.95;;
60370;SDS011;48550;40.588;49.684;2023-01-09T17:16:26;14.48;;;4.28;;
60370;SDS011;48550;40.588;49.684;2023-01-09T17:18:53;7.20;;;3.53;;